sensor_id;sensor_type;location;lat;lon;timestamp;P1;durP1;ratioP1;P2;durP2;ratioP2
43646;SDS011;56152;49.996;18.980;2022-10-23T00:01:20;21.33;;;16.75;;
43646;SDS011;56152;49.996;18.980;2022-10-23T00:06:25;22.55;;;16.58;;
43646;SDS011;56152;49.996;18.980;2022-10-23T00:11:29;21.08;;;16.23;;
43646;SDS011;56152;49.996;18.980;2022-10-23T00:16:33;23.67;;;17.30;;
43646;SDS011;56152;49.996;18.980;2022-10-23T00:27:03;20.00;;;16.88;;
43646;SDS011;56152;49.996;18.980;2022-10-23T00:32:07;26.90;;;18.17;;
43646;SDS011;56152;49.996;18.980;2022-10-23T00:37:11;21.98;;;16.65;;
43646;SDS011;56152;49.996;18.980;2022-10-23T00:42:13;26.48;;;18.42;;
43646;SDS011;56152;49.996;18.980;2022-10-23T00:47:18;24.77;;;15.75;;
43646;SDS011;56152;49.996;18.980;2022-10-23T00:58:17;18.20;;;13.90;;
43646;SDS011;56152;49.996;18.980;2022-10-23T01:03:24;18.25;;;14.23;;
43646;SDS011;56152;49.996;18.980;2022-10-23T01:08:28;23.42;;;16.52;;
43646;SDS011;56152;49.996;18.980;2022-10-23T01:13:38;21.30;;;16.50;;
43646;SDS011;56152;49.996;18.980;2022-10-23T01:18:56;23.40;;;17.65;;
43646;SDS011;56152;49.996;18.980;2022-10-23T01:24:11;19.48;;;14.10;;
43646;SDS011;56152;49.996;18.980;2022-10-23T01:29:39;23.85;;;16.98;;
43646;SDS011;56152;49.996;18.980;2022-10-23T01:34:47;33.67;;;26.67;;
43646;SDS011;56152;49.996;18.980;2022-10-23T01:45:15;20.38;;;16.20;;
43646;SDS011;56152;49.996;18.980;2022-10-23T01:50:35;17.33;;;14.00;;
43646;SDS011;56152;49.996;18.980;2022-10-23T01:55:38;23.88;;;17.00;;
43646;SDS011;56152;49.996;18.980;2022-10-23T02:06:10;27.85;;;18.90;;
43646;SDS011;56152;49.996;18.980;2022-10-23T02:11:13;23.35;;;15.00;;
43646;SDS011;56152;49.996;18.980;2022-10-23T02:16:20;22.73;;;18.20;;
43646;SDS011;56152;49.996;18.980;2022-10-23T02:21:27;24.33;;;18.00;;
43646;SDS011;56152;49.996;18.980;2022-10-23T02:26:34;19.45;;;16.17;;
43646;SDS011;56152;49.996;18.980;2022-10-23T02:32:04;24.17;;;16.38;;
43646;SDS011;56152;49.996;18.980;2022-10-23T02:42:44;18.92;;;14.15;;
43646;SDS011;56152;49.996;18.980;2022-10-23T02:48:16;16.48;;;12.77;;
43646;SDS011;56152;49.996;18.980;2022-10-23T02:53:42;19.85;;;12.63;;
43646;SDS011;56152;49.996;18.980;2022-10-23T02:59:09;17.45;;;12.38;;
43646;SDS011;56152;49.996;18.980;2022-10-23T03:10:26;12.98;;;10.35;;
43646;SDS011;56152;49.996;18.980;2022-10-23T03:15:28;13.75;;;10.20;;
43646;SDS011;56152;49.996;18.980;2022-10-23T03:20:48;14.05;;;11.18;;
43646;SDS011;56152;49.996;18.980;2022-10-23T03:25:52;13.87;;;11.10;;
43646;SDS011;56152;49.996;18.980;2022-10-23T03:30:55;14.55;;;11.63;;
43646;SDS011;56152;49.996;18.980;2022-10-23T03:35:57;20.10;;;13.68;;
43646;SDS011;56152;49.996;18.980;2022-10-23T03:41:00;11.05;;;8.98;;
43646;SDS011;56152;49.996;18.980;2022-10-23T03:46:21;13.88;;;10.52;;
43646;SDS011;56152;49.996;18.980;2022-10-23T03:51:23;12.98;;;10.40;;
43646;SDS011;56152;49.996;18.980;2022-10-23T03:56:42;20.15;;;13.63;;
43646;SDS011;56152;49.996;18.980;2022-10-23T04:01:44;16.48;;;13.63;;
43646;SDS011;56152;49.996;18.980;2022-10-23T04:06:58;18.08;;;15.60;;
43646;SDS011;56152;49.996;18.980;2022-10-23T04:17:25;16.45;;;12.32;;
43646;SDS011;56152;49.996;18.980;2022-10-23T04:22:37;16.30;;;12.68;;
43646;SDS011;56152;49.996;18.980;2022-10-23T04:27:41;15.63;;;12.73;;
43646;SDS011;56152;49.996;18.980;2022-10-23T04:32:42;20.77;;;13.25;;
43646;SDS011;56152;49.996;18.980;2022-10-23T04:37:44;20.67;;;13.85;;
43646;SDS011;56152;49.996;18.980;2022-10-23T04:42:48;23.60;;;14.23;;
43646;SDS011;56152;49.996;18.980;2022-10-23T04:53:17;20.67;;;15.88;;
43646;SDS011;56152;49.996;18.980;2022-10-23T04:58:33;22.60;;;16.33;;
43646;SDS011;56152;49.996;18.980;2022-10-23T05:03:34;30.38;;;20.65;;
43646;SDS011;56152;49.996;18.980;2022-10-23T05:08:55;27.85;;;19.45;;
43646;SDS011;56152;49.996;18.980;2022-10-23T05:14:01;24.10;;;16.90;;
43646;SDS011;56152;49.996;18.980;2022-10-23T05:19:02;26.10;;;19.48;;
43646;SDS011;56152;49.996;18.980;2022-10-23T05:24:13;29.80;;;20.25;;
43646;SDS011;56152;49.996;18.980;2022-10-23T05:29:16;27.88;;;18.33;;
43646;SDS011;56152;49.996;18.980;2022-10-23T05:34:18;29.05;;;18.27;;
43646;SDS011;56152;49.996;18.980;2022-10-23T05:39:24;29.38;;;19.85;;
43646;SDS011;56152;49.996;18.980;2022-10-23T05:44:35;29.33;;;19.60;;
43646;SDS011;56152;49.996;18.980;2022-10-23T05:49:45;33.10;;;20.52;;
43646;SDS011;56152;49.996;18.980;2022-10-23T05:54:49;35.03;;;22.70;;
43646;SDS011;56152;49.996;18.980;2022-10-23T05:59:53;29.55;;;18.85;;
43646;SDS011;56152;49.996;18.980;2022-10-23T06:04:56;25.80;;;18.55;;
43646;SDS011;56152;49.996;18.980;2022-10-23T06:09:58;24.67;;;17.38;;
43646;SDS011;56152;49.996;18.980;2022-10-23T06:15:02;29.65;;;19.77;;
43646;SDS011;56152;49.996;18.980;2022-10-23T06:20:06;35.83;;;21.90;;
43646;SDS011;56152;49.996;18.980;2022-10-23T06:25:12;37.78;;;24.17;;
43646;SDS011;56152;49.996;18.980;2022-10-23T06:30:16;41.08;;;26.13;;
43646;SDS011;56152;49.996;18.980;2022-10-23T06:35:20;40.42;;;25.25;;
43646;SDS011;56152;49.996;18.980;2022-10-23T06:40:22;47.28;;;27.38;;
43646;SDS011;56152;49.996;18.980;2022-10-23T06:45:26;40.25;;;24.67;;
43646;SDS011;56152;49.996;18.980;2022-10-23T06:50:29;50.90;;;27.45;;
43646;SDS011;56152;49.996;18.980;2022-10-23T06:55:31;51.08;;;29.08;;
43646;SDS011;56152;49.996;18.980;2022-10-23T07:00:35;48.90;;;27.88;;
43646;SDS011;56152;49.996;18.980;2022-10-23T07:05:38;63.17;;;33.17;;
43646;SDS011;56152;49.996;18.980;2022-10-23T07:10:46;52.38;;;29.50;;
43646;SDS011;56152;49.996;18.980;2022-10-23T07:15:49;43.42;;;24.52;;
43646;SDS011;56152;49.996;18.980;2022-10-23T07:20:56;38.97;;;23.02;;
43646;SDS011;56152;49.996;18.980;2022-10-23T07:26:01;37.30;;;22.80;;
43646;SDS011;56152;49.996;18.980;2022-10-23T07:31:07;43.83;;;26.92;;
43646;SDS011;56152;49.996;18.980;2022-10-23T07:36:09;37.67;;;22.65;;
43646;SDS011;56152;49.996;18.980;2022-10-23T07:41:12;41.38;;;26.48;;
43646;SDS011;56152;49.996;18.980;2022-10-23T07:46:16;36.88;;;23.75;;
43646;SDS011;56152;49.996;18.980;2022-10-23T07:51:18;33.95;;;21.75;;
43646;SDS011;56152;49.996;18.980;2022-10-23T07:56:21;36.88;;;22.60;;
43646;SDS011;56152;49.996;18.980;2022-10-23T08:01:30;29.63;;;20.20;;
43646;SDS011;56152;49.996;18.980;2022-10-23T08:06:34;23.45;;;15.45;;
43646;SDS011;56152;49.996;18.980;2022-10-23T08:11:36;23.50;;;15.57;;
43646;SDS011;56152;49.996;18.980;2022-10-23T08:16:40;20.83;;;14.95;;
43646;SDS011;56152;49.996;18.980;2022-10-23T08:21:42;18.30;;;12.20;;
43646;SDS011;56152;49.996;18.980;2022-10-23T08:26:44;19.98;;;13.82;;
43646;SDS011;56152;49.996;18.980;2022-10-23T08:31:53;17.70;;;13.20;;
43646;SDS011;56152;49.996;18.980;2022-10-23T08:36:57;16.33;;;12.98;;
43646;SDS011;56152;49.996;18.980;2022-10-23T08:42:02;14.85;;;11.18;;
43646;SDS011;56152;49.996;18.980;2022-10-23T08:47:21;14.18;;;11.00;;
43646;SDS011;56152;49.996;18.980;2022-10-23T08:57:42;15.55;;;9.75;;
43646;SDS011;56152;49.996;18.980;2022-10-23T09:02:51;11.60;;;9.10;;
43646;SDS011;56152;49.996;18.980;2022-10-23T09:08:07;12.43;;;10.23;;
43646;SDS011;56152;49.996;18.980;2022-10-23T09:13:32;13.70;;;10.73;;
43646;SDS011;56152;49.996;18.980;2022-10-23T09:19:00;15.60;;;12.13;;
43646;SDS011;56152;49.996;18.980;2022-10-23T09:24:09;16.88;;;11.77;;
43646;SDS011;56152;49.996;18.980;2022-10-23T09:29:18;13.70;;;10.50;;
43646;SDS011;56152;49.996;18.980;2022-10-23T09:34:25;15.35;;;11.38;;
43646;SDS011;56152;49.996;18.980;2022-10-23T09:39:29;18.17;;;12.65;;
43646;SDS011;56152;49.996;18.980;2022-10-23T09:44:33;13.48;;;11.52;;
43646;SDS011;56152;49.996;18.980;2022-10-23T09:49:38;14.32;;;11.80;;
43646;SDS011;56152;49.996;18.980;2022-10-23T09:54:46;9.43;;;8.43;;
43646;SDS011;56152;49.996;18.980;2022-10-23T09:59:51;14.73;;;10.60;;
43646;SDS011;56152;49.996;18.980;2022-10-23T10:04:57;11.13;;;8.95;;
43646;SDS011;56152;49.996;18.980;2022-10-23T10:09:59;11.68;;;8.23;;
43646;SDS011;56152;49.996;18.980;2022-10-23T10:15:10;11.10;;;8.57;;
43646;SDS011;56152;49.996;18.980;2022-10-23T10:20:26;9.85;;;7.40;;
43646;SDS011;56152;49.996;18.980;2022-10-23T10:25:42;20.35;;;7.95;;
43646;SDS011;56152;49.996;18.980;2022-10-23T10:30:55;11.15;;;7.82;;
43646;SDS011;56152;49.996;18.980;2022-10-23T10:36:10;9.32;;;6.90;;
43646;SDS011;56152;49.996;18.980;2022-10-23T10:41:27;9.60;;;6.88;;
43646;SDS011;56152;49.996;18.980;2022-10-23T10:46:38;11.35;;;8.07;;
43646;SDS011;56152;49.996;18.980;2022-10-23T10:51:50;7.47;;;5.88;;
43646;SDS011;56152;49.996;18.980;2022-10-23T10:57:01;10.20;;;6.40;;
43646;SDS011;56152;49.996;18.980;2022-10-23T11:02:14;10.38;;;6.18;;
43646;SDS011;56152;49.996;18.980;2022-10-23T11:07:25;10.30;;;6.75;;
43646;SDS011;56152;49.996;18.980;2022-10-23T11:12:34;6.85;;;5.47;;
43646;SDS011;56152;49.996;18.980;2022-10-23T11:17:36;6.63;;;5.32;;
43646;SDS011;56152;49.996;18.980;2022-10-23T11:22:42;8.05;;;6.28;;
43646;SDS011;56152;49.996;18.980;2022-10-23T11:27:54;6.22;;;5.00;;
43646;SDS011;56152;49.996;18.980;2022-10-23T11:33:15;7.45;;;5.05;;
43646;SDS011;56152;49.996;18.980;2022-10-23T11:38:37;6.15;;;4.72;;
43646;SDS011;56152;49.996;18.980;2022-10-23T11:43:46;7.03;;;4.78;;
43646;SDS011;56152;49.996;18.980;2022-10-23T11:48:54;5.60;;;4.38;;
43646;SDS011;56152;49.996;18.980;2022-10-23T11:54:18;6.38;;;4.20;;
43646;SDS011;56152;49.996;18.980;2022-10-23T11:59:26;4.80;;;2.72;;
43646;SDS011;56152;49.996;18.980;2022-10-23T12:04:32;3.83;;;3.20;;
43646;SDS011;56152;49.996;18.980;2022-10-23T12:09:42;5.53;;;3.53;;
43646;SDS011;56152;49.996;18.980;2022-10-23T12:14:46;4.80;;;2.85;;
43646;SDS011;56152;49.996;18.980;2022-10-23T12:19:50;4.47;;;3.40;;
43646;SDS011;56152;49.996;18.980;2022-10-23T12:24:57;5.13;;;3.33;;
43646;SDS011;56152;49.996;18.980;2022-10-23T12:30:19;3.88;;;3.10;;
43646;SDS011;56152;49.996;18.980;2022-10-23T12:35:32;5.38;;;3.00;;
43646;SDS011;56152;49.996;18.980;2022-10-23T12:41:00;5.23;;;3.00;;
43646;SDS011;56152;49.996;18.980;2022-10-23T12:51:41;4.78;;;3.17;;
43646;SDS011;56152;49.996;18.980;2022-10-23T12:56:45;5.43;;;3.33;;
43646;SDS011;56152;49.996;18.980;2022-10-23T13:01:47;7.05;;;3.13;;
43646;SDS011;56152;49.996;18.980;2022-10-23T13:06:49;6.35;;;3.10;;
43646;SDS011;56152;49.996;18.980;2022-10-23T13:11:57;4.63;;;3.22;;
43646;SDS011;56152;49.996;18.980;2022-10-23T13:17:02;4.07;;;2.90;;
43646;SDS011;56152;49.996;18.980;2022-10-23T13:22:13;3.42;;;3.13;;
43646;SDS011;56152;49.996;18.980;2022-10-23T13:27:24;4.93;;;3.67;;
43646;SDS011;56152;49.996;18.980;2022-10-23T13:32:31;4.40;;;3.67;;
43646;SDS011;56152;49.996;18.980;2022-10-23T13:37:34;4.90;;;3.22;;
43646;SDS011;56152;49.996;18.980;2022-10-23T13:42:37;5.38;;;3.90;;
43646;SDS011;56152;49.996;18.980;2022-10-23T13:47:40;7.43;;;4.47;;
43646;SDS011;56152;49.996;18.980;2022-10-23T13:52:41;4.78;;;3.53;;
43646;SDS011;56152;49.996;18.980;2022-10-23T13:57:45;5.78;;;4.05;;
43646;SDS011;56152;49.996;18.980;2022-10-23T14:02:47;6.07;;;3.63;;
43646;SDS011;56152;49.996;18.980;2022-10-23T14:07:48;4.60;;;3.47;;
43646;SDS011;56152;49.996;18.980;2022-10-23T14:12:52;4.13;;;3.00;;
43646;SDS011;56152;49.996;18.980;2022-10-23T14:17:54;3.95;;;2.85;;
43646;SDS011;56152;49.996;18.980;2022-10-23T14:22:56;5.00;;;3.00;;
43646;SDS011;56152;49.996;18.980;2022-10-23T14:27:59;12.32;;;6.05;;
43646;SDS011;56152;49.996;18.980;2022-10-23T14:33:02;13.15;;;5.30;;
43646;SDS011;56152;49.996;18.980;2022-10-23T14:38:05;10.20;;;4.88;;
43646;SDS011;56152;49.996;18.980;2022-10-23T14:48:30;7.40;;;4.07;;
43646;SDS011;56152;49.996;18.980;2022-10-23T14:53:38;7.10;;;4.55;;
43646;SDS011;56152;49.996;18.980;2022-10-23T14:58:44;7.20;;;4.93;;
43646;SDS011;56152;49.996;18.980;2022-10-23T15:03:47;9.57;;;5.63;;
43646;SDS011;56152;49.996;18.980;2022-10-23T15:08:53;13.75;;;7.40;;
43646;SDS011;56152;49.996;18.980;2022-10-23T15:14:03;11.10;;;6.03;;
43646;SDS011;56152;49.996;18.980;2022-10-23T15:19:08;14.77;;;8.00;;
43646;SDS011;56152;49.996;18.980;2022-10-23T15:24:18;12.43;;;7.35;;
43646;SDS011;56152;49.996;18.980;2022-10-23T15:29:36;9.52;;;6.60;;
43646;SDS011;56152;49.996;18.980;2022-10-23T15:34:47;9.88;;;6.72;;
43646;SDS011;56152;49.996;18.980;2022-10-23T15:40:02;9.27;;;5.47;;
43646;SDS011;56152;49.996;18.980;2022-10-23T15:45:09;11.18;;;7.20;;
43646;SDS011;56152;49.996;18.980;2022-10-23T15:50:14;16.63;;;10.02;;
43646;SDS011;56152;49.996;18.980;2022-10-23T15:55:17;11.05;;;7.80;;
43646;SDS011;56152;49.996;18.980;2022-10-23T16:00:33;13.35;;;8.48;;
43646;SDS011;56152;49.996;18.980;2022-10-23T16:05:35;15.18;;;10.27;;
43646;SDS011;56152;49.996;18.980;2022-10-23T16:10:38;20.25;;;14.38;;
43646;SDS011;56152;49.996;18.980;2022-10-23T16:15:46;29.00;;;16.20;;
43646;SDS011;56152;49.996;18.980;2022-10-23T16:20:48;25.65;;;19.65;;
43646;SDS011;56152;49.996;18.980;2022-10-23T16:25:54;38.17;;;26.60;;
43646;SDS011;56152;49.996;18.980;2022-10-23T16:30:59;63.10;;;43.75;;
43646;SDS011;56152;49.996;18.980;2022-10-23T16:36:01;92.18;;;63.80;;
43646;SDS011;56152;49.996;18.980;2022-10-23T16:41:16;119.80;;;78.68;;
43646;SDS011;56152;49.996;18.980;2022-10-23T16:46:19;100.85;;;60.80;;
43646;SDS011;56152;49.996;18.980;2022-10-23T16:51:23;85.38;;;51.55;;
43646;SDS011;56152;49.996;18.980;2022-10-23T16:56:40;52.42;;;33.60;;
43646;SDS011;56152;49.996;18.980;2022-10-23T17:01:45;65.65;;;40.97;;
43646;SDS011;56152;49.996;18.980;2022-10-23T17:06:47;50.78;;;32.78;;
43646;SDS011;56152;49.996;18.980;2022-10-23T17:11:51;44.65;;;29.23;;
43646;SDS011;56152;49.996;18.980;2022-10-23T17:16:59;56.80;;;32.50;;
43646;SDS011;56152;49.996;18.980;2022-10-23T17:22:02;57.40;;;36.40;;
43646;SDS011;56152;49.996;18.980;2022-10-23T17:27:10;47.33;;;31.55;;
43646;SDS011;56152;49.996;18.980;2022-10-23T17:32:16;56.42;;;32.40;;
43646;SDS011;56152;49.996;18.980;2022-10-23T17:37:20;53.65;;;33.30;;
43646;SDS011;56152;49.996;18.980;2022-10-23T17:42:21;50.15;;;29.60;;
43646;SDS011;56152;49.996;18.980;2022-10-23T17:47:25;52.22;;;30.92;;
43646;SDS011;56152;49.996;18.980;2022-10-23T17:52:43;50.80;;;29.58;;
43646;SDS011;56152;49.996;18.980;2022-10-23T17:58:01;51.03;;;31.42;;
43646;SDS011;56152;49.996;18.980;2022-10-23T18:08:34;62.17;;;33.78;;
43646;SDS011;56152;49.996;18.980;2022-10-23T18:13:36;80.57;;;43.00;;
43646;SDS011;56152;49.996;18.980;2022-10-23T18:18:40;72.55;;;41.33;;
43646;SDS011;56152;49.996;18.980;2022-10-23T18:23:49;65.80;;;35.70;;
43646;SDS011;56152;49.996;18.980;2022-10-23T18:28:52;47.75;;;27.67;;
43646;SDS011;56152;49.996;18.980;2022-10-23T18:34:02;41.90;;;25.20;;
43646;SDS011;56152;49.996;18.980;2022-10-23T18:39:07;51.65;;;29.73;;
43646;SDS011;56152;49.996;18.980;2022-10-23T18:44:14;51.60;;;33.78;;
43646;SDS011;56152;49.996;18.980;2022-10-23T18:49:21;53.47;;;34.67;;
43646;SDS011;56152;49.996;18.980;2022-10-23T18:54:24;75.97;;;45.22;;
43646;SDS011;56152;49.996;18.980;2022-10-23T18:59:26;111.47;;;71.30;;
43646;SDS011;56152;49.996;18.980;2022-10-23T19:04:31;90.07;;;59.78;;
43646;SDS011;56152;49.996;18.980;2022-10-23T19:09:33;92.63;;;57.15;;
43646;SDS011;56152;49.996;18.980;2022-10-23T19:14:36;106.30;;;63.60;;
43646;SDS011;56152;49.996;18.980;2022-10-23T19:19:41;110.72;;;63.85;;
43646;SDS011;56152;49.996;18.980;2022-10-23T19:24:46;115.50;;;65.47;;
43646;SDS011;56152;49.996;18.980;2022-10-23T19:29:51;100.25;;;58.63;;
43646;SDS011;56152;49.996;18.980;2022-10-23T19:34:58;74.90;;;43.30;;
43646;SDS011;56152;49.996;18.980;2022-10-23T19:40:00;80.30;;;45.13;;
43646;SDS011;56152;49.996;18.980;2022-10-23T19:45:06;69.10;;;39.88;;
43646;SDS011;56152;49.996;18.980;2022-10-23T19:50:12;59.63;;;37.95;;
43646;SDS011;56152;49.996;18.980;2022-10-23T19:55:14;74.53;;;45.13;;
43646;SDS011;56152;49.996;18.980;2022-10-23T20:00:16;77.10;;;44.90;;
43646;SDS011;56152;49.996;18.980;2022-10-23T20:05:20;75.05;;;42.13;;
43646;SDS011;56152;49.996;18.980;2022-10-23T20:10:22;61.67;;;39.63;;
43646;SDS011;56152;49.996;18.980;2022-10-23T20:15:25;63.05;;;40.22;;
43646;SDS011;56152;49.996;18.980;2022-10-23T20:20:29;67.65;;;41.45;;
43646;SDS011;56152;49.996;18.980;2022-10-23T20:25:31;71.68;;;43.78;;
43646;SDS011;56152;49.996;18.980;2022-10-23T20:30:38;75.35;;;47.00;;
43646;SDS011;56152;49.996;18.980;2022-10-23T20:35:43;86.53;;;52.85;;
43646;SDS011;56152;49.996;18.980;2022-10-23T20:40:47;83.80;;;53.90;;
43646;SDS011;56152;49.996;18.980;2022-10-23T20:45:49;82.70;;;49.90;;
43646;SDS011;56152;49.996;18.980;2022-10-23T20:50:53;96.30;;;55.72;;
43646;SDS011;56152;49.996;18.980;2022-10-23T20:55:55;82.60;;;52.38;;
43646;SDS011;56152;49.996;18.980;2022-10-23T21:01:00;87.63;;;52.97;;
43646;SDS011;56152;49.996;18.980;2022-10-23T21:06:07;88.15;;;52.97;;
43646;SDS011;56152;49.996;18.980;2022-10-23T21:11:10;102.18;;;57.30;;
43646;SDS011;56152;49.996;18.980;2022-10-23T21:16:13;105.82;;;60.20;;
43646;SDS011;56152;49.996;18.980;2022-10-23T21:21:19;107.38;;;60.60;;
43646;SDS011;56152;49.996;18.980;2022-10-23T21:26:22;178.57;;;85.93;;
43646;SDS011;56152;49.996;18.980;2022-10-23T21:31:25;172.90;;;84.53;;
43646;SDS011;56152;49.996;18.980;2022-10-23T21:36:29;115.72;;;63.42;;
43646;SDS011;56152;49.996;18.980;2022-10-23T21:41:33;86.65;;;48.25;;
43646;SDS011;56152;49.996;18.980;2022-10-23T21:46:35;60.47;;;37.88;;
43646;SDS011;56152;49.996;18.980;2022-10-23T21:51:39;53.63;;;33.33;;
43646;SDS011;56152;49.996;18.980;2022-10-23T21:56:42;60.22;;;37.78;;
43646;SDS011;56152;49.996;18.980;2022-10-23T22:01:47;76.72;;;47.00;;
43646;SDS011;56152;49.996;18.980;2022-10-23T22:06:51;70.13;;;44.20;;
43646;SDS011;56152;49.996;18.980;2022-10-23T22:11:53;103.82;;;66.65;;
43646;SDS011;56152;49.996;18.980;2022-10-23T22:16:55;77.00;;;51.05;;
43646;SDS011;56152;49.996;18.980;2022-10-23T22:21:58;90.13;;;56.30;;
43646;SDS011;56152;49.996;18.980;2022-10-23T22:27:03;76.07;;;49.45;;
43646;SDS011;56152;49.996;18.980;2022-10-23T22:32:11;77.45;;;44.97;;
43646;SDS011;56152;49.996;18.980;2022-10-23T22:37:15;78.35;;;47.20;;
43646;SDS011;56152;49.996;18.980;2022-10-23T22:42:16;67.95;;;43.28;;
43646;SDS011;56152;49.996;18.980;2022-10-23T22:47:19;81.95;;;48.17;;
43646;SDS011;56152;49.996;18.980;2022-10-23T22:52:29;84.70;;;51.42;;
43646;SDS011;56152;49.996;18.980;2022-10-23T22:57:30;54.10;;;33.27;;
43646;SDS011;56152;49.996;18.980;2022-10-23T23:02:43;65.68;;;42.25;;
43646;SDS011;56152;49.996;18.980;2022-10-23T23:12:48;83.45;;;48.78;;
43646;SDS011;56152;49.996;18.980;2022-10-23T23:17:50;70.93;;;43.22;;
43646;SDS011;56152;49.996;18.980;2022-10-23T23:22:56;108.50;;;59.97;;
43646;SDS011;56152;49.996;18.980;2022-10-23T23:27:57;57.90;;;36.65;;
43646;SDS011;56152;49.996;18.980;2022-10-23T23:33:17;64.28;;;42.30;;
43646;SDS011;56152;49.996;18.980;2022-10-23T23:38:22;66.90;;;46.13;;
43646;SDS011;56152;49.996;18.980;2022-10-23T23:43:34;61.58;;;41.75;;
43646;SDS011;56152;49.996;18.980;2022-10-23T23:48:36;68.65;;;41.53;;
43646;SDS011;56152;49.996;18.980;2022-10-23T23:53:40;87.22;;;52.33;;
43646;SDS011;56152;49.996;18.980;2022-10-23T23:58:41;86.75;;;50.67;;
